Nippon Maru — JNNU — position and weather

sailwx.info

Track history (hours):
 
Tides and Currents Weather Stations Pressure Air Temp Water Temp Dewpoint Dewpoint Depression Visibility Wind Speed Wind Dir Waves Ship Positions

Nippon Maru

Last reported at 2019-Nov-19 08:41 UTC. Time now 2019-Nov-20 09:24 UTC.
Position N 01°12' E 103°39'.

Length 167 m; draft 6.5 m.

Type: Passenger vessel. MMSI: 431302000.

Date/timePositionNaut miles runAvg speedWind from/ knotsBaromVisibWave heightAir tempDewpointWater temp
2019-Nov-19 08:41N 01°12' E 103°39'10 6.2
2019-Nov-19 07:00N 01°16' E 103°49'0 0.0
2019-Nov-19 04:27N 01°16' E 103°49'0 0.0
2019-Nov-19 02:00N 01°16' E 103°49'0 0.0
2019-Nov-18 23:24N 01°16' E 103°49'0 0.0
2019-Nov-18 22:30N 01°16' E 103°49'0 0.0
2019-Nov-18 22:00N 01°16' E 103°49'0 0.0
2019-Nov-18 21:30N 01°16' E 103°49'0 0.0
2019-Nov-18 20:27N 01°16' E 103°49'0 0.0
2019-Nov-18 19:54N 01°16' E 103°49'0 0.0
2019-Nov-18 19:30N 01°16' E 103°49'0 0.0
2019-Nov-18 16:00N 01°16' E 103°49'0 0.0
2019-Nov-18 15:27N 01°16' E 103°49'0 0.0
2019-Nov-18 12:39N 01°16' E 103°49'0 0.0
2019-Nov-18 12:30N 01°16' E 103°49'4 2.5
2019-Nov-18 11:00N 01°12' E 103°51'3 2.3
2019-Nov-18 09:30N 01°16' E 103°52'0 0.0
2019-Nov-18 05:27N 01°16' E 103°52'0 0.0
2019-Nov-18 04:57N 01°16' E 103°52'0 0.0
2019-Nov-18 04:00N 01°16' E 103°52'0 0.0
2019-Nov-18 03:00N 01°16' E 103°52'0 0.1
2019-Nov-18 02:00N 01°16' E 103°52'0 0.1
2019-Nov-18 01:00N 01°16' E 103°52'0 0.0
2019-Nov-17 23:27N 01°16' E 103°52'0 0.1
2019-Nov-17 23:00N 01°16' E 103°52'0 0.0
2019-Nov-17 22:00N 01°16' E 103°52'0 0.0
2019-Nov-17 20:00N 01°16' E 103°52'0 0.0
2019-Nov-17 17:30N 01°16' E 103°52'0 0.1
2019-Nov-17 17:00N 01°16' E 103°52'3 0.3
2019-Nov-17 07:30N 01°16' E 103°49'0 0.0
2019-Nov-17 04:24N 01°16' E 103°49'0 0.0
2019-Nov-17 03:45N 01°16' E 103°49'0 0.0
2019-Nov-17 03:24N 01°16' E 103°49'0 0.0
2019-Nov-17 01:30N 01°16' E 103°49'0 0.0
2019-Nov-16 21:24N 01°16' E 103°49'0 0.0
2019-Nov-16 20:30N 01°16' E 103°49'0 0.0
2019-Nov-16 18:18N 01°16' E 103°49'0 0.0
2019-Nov-16 15:41N 01°16' E 103°49'0 0.0
2019-Nov-16 15:30N 01°16' E 103°49'0 0.0
2019-Nov-16 07:29N 01°16' E 103°49'0 0.0
2019-Nov-16 06:18N 01°16' E 103°49'0 0.0
2019-Nov-16 03:29N 01°16' E 103°49'0 0.0
2019-Nov-16 02:47N 01°16' E 103°49'0 0.0
2019-Nov-16 02:30N 01°16' E 103°49'0 0.0
2019-Nov-15 22:31N 01°16' E 103°49'16 6.5
2019-Nov-15 20:00N 01°16' E 104°05'  
Track history (hours):
 
Tides and Currents Weather Stations Pressure Air Temp Water Temp Dewpoint Dewpoint Depression Visibility Wind Speed Wind Dir Waves Ship Positions

Nippon Maru

Last reported at 2019-Nov-19 08:41 UTC. Time now 2019-Nov-20 09:24 UTC.
Position N 01°12' E 103°39'.

Length 167 m; draft 6.5 m.

Type: Passenger vessel. MMSI: 431302000.

Date/timePositionNaut miles runAvg speedWind from/ knotsBaromVisibWave heightAir tempDewpointWater temp
2019-Nov-19 08:41N 01°12' E 103°39'10 6.2
2019-Nov-19 07:00N 01°16' E 103°49'0 0.0
2019-Nov-19 04:27N 01°16' E 103°49'0 0.0
2019-Nov-19 02:00N 01°16' E 103°49'0 0.0
2019-Nov-18 23:24N 01°16' E 103°49'0 0.0
2019-Nov-18 22:30N 01°16' E 103°49'0 0.0
2019-Nov-18 22:00N 01°16' E 103°49'0 0.0
2019-Nov-18 21:30N 01°16' E 103°49'0 0.0
2019-Nov-18 20:27N 01°16' E 103°49'0 0.0
2019-Nov-18 19:54N 01°16' E 103°49'0 0.0
2019-Nov-18 19:30N 01°16' E 103°49'0 0.0
2019-Nov-18 16:00N 01°16' E 103°49'0 0.0
2019-Nov-18 15:27N 01°16' E 103°49'0 0.0
2019-Nov-18 12:39N 01°16' E 103°49'0 0.0
2019-Nov-18 12:30N 01°16' E 103°49'4 2.5
2019-Nov-18 11:00N 01°12' E 103°51'3 2.3
2019-Nov-18 09:30N 01°16' E 103°52'0 0.0
2019-Nov-18 05:27N 01°16' E 103°52'0 0.0
2019-Nov-18 04:57N 01°16' E 103°52'0 0.0
2019-Nov-18 04:00N 01°16' E 103°52'0 0.0
2019-Nov-18 03:00N 01°16' E 103°52'0 0.1
2019-Nov-18 02:00N 01°16' E 103°52'0 0.1
2019-Nov-18 01:00N 01°16' E 103°52'0 0.0
2019-Nov-17 23:27N 01°16' E 103°52'0 0.1
2019-Nov-17 23:00N 01°16' E 103°52'0 0.0
2019-Nov-17 22:00N 01°16' E 103°52'0 0.0
2019-Nov-17 20:00N 01°16' E 103°52'0 0.0
2019-Nov-17 17:30N 01°16' E 103°52'0 0.1
2019-Nov-17 17:00N 01°16' E 103°52'3 0.3
2019-Nov-17 07:30N 01°16' E 103°49'0 0.0
2019-Nov-17 04:24N 01°16' E 103°49'0 0.0
2019-Nov-17 03:45N 01°16' E 103°49'0 0.0
2019-Nov-17 03:24N 01°16' E 103°49'0 0.0
2019-Nov-17 01:30N 01°16' E 103°49'0 0.0
2019-Nov-16 21:24N 01°16' E 103°49'0 0.0
2019-Nov-16 20:30N 01°16' E 103°49'0 0.0
2019-Nov-16 18:18N 01°16' E 103°49'0 0.0
2019-Nov-16 15:41N 01°16' E 103°49'0 0.0
2019-Nov-16 15:30N 01°16' E 103°49'0 0.0
2019-Nov-16 07:29N 01°16' E 103°49'0 0.0
2019-Nov-16 06:18N 01°16' E 103°49'0 0.0
2019-Nov-16 03:29N 01°16' E 103°49'0 0.0
2019-Nov-16 02:47N 01°16' E 103°49'0 0.0
2019-Nov-16 02:30N 01°16' E 103°49'0 0.0
2019-Nov-15 22:31N 01°16' E 103°49'16 6.5
2019-Nov-15 20:00N 01°16' E 104°05'  

Dump ship's entire track history